Time;durP1;ratioP1;P1;durP2;ratioP2;P2;SDS_P1;SDS_P2;PMS_P1;PMS_P2;Temp;Humidity;BMP_temperature;BMP_pressure;BME280_temperature;BME280_humidity;BME280_pressure;Samples;Min_cycle;Max_cycle;Signal;HPM_P1;HPM_P2
2021/12/10 00:02:17;;;;;;;99.10;67.50;;;;;;;-1.16;80.01;99321.72;108258;1286;21995;-75
2021/12/10 00:04:47;;;;;;;107.20;77.70;;;;;;;-1.19;79.95;99327.94;108276;1286;22024;-75
2021/12/10 00:07:26;;;;;;;132.60;96.30;;;;;;;-1.19;80.04;99327.77;107721;1291;22027;-75
2021/12/10 00:10:04;;;;;;;107.60;77.60;;;;;;;-1.17;80.06;99327.99;108103;1287;24303;-75
2021/12/10 00:12:50;;;;;;;87.00;65.10;;;;;;;-1.16;80.00;99328.92;108129;1288;21987;-75
2021/12/10 00:15:28;;;;;;;88.80;65.80;;;;;;;-1.16;80.00;99320.50;108314;1283;21995;-75
2021/12/10 00:18:06;;;;;;;96.90;67.50;;;;;;;-1.13;80.06;99310.77;108279;1283;22214;-76
2021/12/10 00:20:43;;;;;;;96.20;66.90;;;;;;;-1.11;80.19;99291.22;108356;1283;22001;-75
2021/12/10 00:23:19;;;;;;;85.80;62.10;;;;;;;-1.06;80.23;99278.55;108397;1281;22022;-75
2021/12/10 00:25:54;;;;;;;95.30;65.20;;;;;;;-1.03;80.11;99274.89;108364;1283;22459;-75
2021/12/10 00:28:40;;;;;;;89.80;64.10;;;;;;;-1.01;80.14;99268.34;108512;1281;23061;-74
2021/12/10 00:31:43;;;;;;;108.70;71.70;;;;;;;-1.02;79.98;99271.64;108429;1283;21982;-74
2021/12/10 00:34:17;;;;;;;97.70;64.60;;;;;;;-1.04;79.95;99267.23;108403;1283;21995;-74
2021/12/10 00:37:04;;;;;;;105.40;67.30;;;;;;;-1.07;79.90;99257.23;108515;1283;23821;-75
2021/12/10 00:39:52;;;;;;;108.70;72.00;;;;;;;-1.07;80.03;99249.48;108084;1286;22027;-75
2021/12/10 00:42:39;;;;;;;107.00;70.50;;;;;;;-1.08;79.93;99249.34;107702;1292;23716;-75
2021/12/10 00:45:44;;;;;;;117.00;71.30;;;;;;;-1.10;79.97;99237.30;108179;1288;22277;-76
2021/12/10 00:48:18;;;;;;;101.10;68.20;;;;;;;-1.13;79.92;99227.98;108015;1288;22007;-75
2021/12/10 00:50:59;;;;;;;90.20;62.30;;;;;;;-1.09;80.05;99221.13;108165;1288;22019;-74
2021/12/10 00:53:31;;;;;;;87.70;64.00;;;;;;;-1.08;80.05;99217.89;107862;1291;22004;-75
2021/12/10 00:56:04;;;;;;;87.60;62.80;;;;;;;-1.06;80.13;99218.61;107922;1291;22010;-74
2021/12/10 00:58:37;;;;;;;95.50;67.00;;;;;;;-1.03;80.16;99226.21;107971;1288;24328;-74
2021/12/10 01:01:25;;;;;;;90.60;67.30;;;;;;;-1.02;79.99;99235.41;108262;1281;22025;-74
2021/12/10 01:04:25;;;;;;;97.00;67.10;;;;;;;-1.03;80.01;99229.73;108428;1282;21979;-75
2021/12/10 01:07:07;;;;;;;101.90;66.90;;;;;;;-1.03;79.99;99223.75;108428;1283;22078;-75
2021/12/10 01:09:46;;;;;;;93.90;66.80;;;;;;;-1.05;80.04;99217.16;108375;1280;22157;-76
2021/12/10 01:12:29;;;;;;;104.10;70.70;;;;;;;-1.07;79.90;99212.14;108676;1276;22738;-75
2021/12/10 01:24:38;;;;;;;85.40;61.70;;;;;;;-1.17;79.92;99208.77;108686;1280;21970;-75
2021/12/10 01:27:30;;;;;;;85.20;61.30;;;;;;;-1.21;80.08;99203.17;108520;1280;22933;-75
2021/12/10 01:30:38;;;;;;;;;;;;;;;;;;;;;
2021/12/10 01:33:17;;;;;;;88.40;61.20;;;;;;;-1.24;80.15;99204.52;108607;1278;22454;-74
2021/12/10 01:35:55;;;;;;;85.80;60.00;;;;;;;-1.26;80.22;99208.98;108210;1286;22778;-75
2021/12/10 01:38:27;;;;;;;91.10;65.30;;;;;;;-1.26;80.30;99225.02;108375;1284;21997;-76
2021/12/10 01:41:10;;;;;;;126.00;91.60;;;;;;;-1.23;80.45;99210.96;108587;1281;21980;-75
2021/12/10 01:43:43;;;;;;;121.90;93.90;;;;;;;-1.18;80.63;99196.58;108088;1286;22050;-75
2021/12/10 01:46:27;;;;;;;103.10;78.00;;;;;;;-1.17;80.45;99188.23;108170;1286;22850;-75
2021/12/10 01:49:23;;;;;;;179.70;160.20;;;;;;;-1.15;80.37;99177.85;108370;1285;21987;-76
2021/12/10 01:52:08;;;;;;;98.70;71.10;;;;;;;-1.15;80.45;99177.88;108232;1286;23973;-75
2021/12/10 01:54:57;;;;;;;130.80;97.80;;;;;;;-1.14;80.46;99178.44;108199;1283;21982;-76
2021/12/10 01:57:43;;;;;;;117.20;85.10;;;;;;;-1.12;80.27;99174.55;108344;1283;22749;-76
2021/12/10 02:00:20;;;;;;;120.00;86.60;;;;;;;-1.12;80.25;99164.38;108353;1285;23123;-76
2021/12/10 02:02:57;;;;;;;96.80;74.00;;;;;;;-1.11;80.39;99166.98;108770;1277;21984;-76
2021/12/10 02:05:36;;;;;;;89.30;65.40;;;;;;;-1.09;80.36;99173.20;108923;1277;22033;-76
2021/12/10 02:08:16;;;;;;;89.70;66.10;;;;;;;-1.08;80.46;99157.46;108890;1275;22467;-75
2021/12/10 02:10:55;;;;;;;110.80;89.30;;;;;;;-1.08;80.31;99167.27;108931;1277;23145;-75
2021/12/10 02:13:33;;;;;;;107.60;81.10;;;;;;;-1.07;80.46;99168.72;108666;1276;21993;-74
2021/12/10 02:16:06;;;;;;;95.50;70.20;;;;;;;-1.02;80.53;99165.98;108796;1277;21978;-75
2021/12/10 02:18:48;;;;;;;81.40;60.90;;;;;;;-0.99;80.41;99162.02;108790;1277;22001;-75
2021/12/10 02:21:34;;;;;;;90.00;66.10;;;;;;;-0.98;80.33;99164.70;108690;1276;24407;-75
2021/12/10 02:24:13;;;;;;;75.10;54.50;;;;;;;-0.99;80.16;99154.10;108668;1277;22082;-75
2021/12/10 02:26:57;;;;;;;77.20;55.00;;;;;;;-1.04;80.04;99150.54;108691;1277;23030;-77
2021/12/10 02:29:33;;;;;;;74.40;56.70;;;;;;;-1.09;80.13;99155.60;108414;1283;22022;-76
2021/12/10 02:32:11;;;;;;;76.30;55.90;;;;;;;-1.07;80.26;99155.47;108119;1286;22211;-75
2021/12/10 02:34:56;;;;;;;68.10;51.40;;;;;;;-1.07;80.22;99155.10;108005;1291;22142;-76
2021/12/10 02:37:36;;;;;;;68.80;51.80;;;;;;;-1.09;80.20;99157.67;107462;1297;22003;-76
2021/12/10 02:40:12;;;;;;;72.70;53.80;;;;;;;-1.09;80.37;99166.86;107276;1298;22004;-76
2021/12/10 02:42:46;;;;;;;67.40;49.70;;;;;;;-1.10;80.18;99166.97;107333;1295;23637;-76
2021/12/10 02:45:25;;;;;;;64.20;50.50;;;;;;;-1.13;80.19;99154.88;107464;1298;21990;-77
2021/12/10 02:48:08;;;;;;;71.50;51.50;;;;;;;-1.12;80.30;99145.86;106892;1303;23924;-75
2021/12/10 02:50:43;;;;;;;68.80;51.60;;;;;;;-1.16;80.19;99149.42;106352;1306;22797;-74
2021/12/10 02:53:22;;;;;;;69.10;51.80;;;;;;;-1.19;80.13;99155.73;106426;1298;22034;-76
2021/12/10 02:56:04;;;;;;;68.50;51.70;;;;;;;-1.20;80.34;99154.41;107548;1294;23650;-75
2021/12/10 02:58:34;;;;;;;69.90;51.80;;;;;;;-1.21;80.31;99156.58;107495;1295;24389;-76
2021/12/10 03:01:28;;;;;;;63.80;49.50;;;;;;;-1.22;80.33;99151.80;107624;1298;22004;-75
2021/12/10 03:04:03;;;;;;;67.80;49.80;;;;;;;-1.22;80.41;99152.64;107572;1296;22802;-75
2021/12/10 03:06:44;;;;;;;69.60;53.30;;;;;;;-1.19;80.47;99155.34;107730;1291;22055;-77
2021/12/10 03:09:21;;;;;;;69.90;50.40;;;;;;;-1.17;80.57;99156.61;108256;1284;23045;-76
2021/12/10 03:12:00;;;;;;;66.60;50.30;;;;;;;-1.11;80.49;99157.85;108283;1284;22930;-76
2021/12/10 03:14:39;;;;;;;77.30;51.90;;;;;;;-1.09;80.50;99142.64;107972;1288;21985;-76
2021/12/10 03:17:18;;;;;;;70.90;52.30;;;;;;;-1.07;80.41;99126.26;108160;1282;22865;-75
2021/12/10 03:19:54;;;;;;;72.90;52.30;;;;;;;-1.06;80.49;99123.55;108334;1282;23707;-75
2021/12/10 03:22:37;;;;;;;63.10;49.60;;;;;;;-1.02;80.44;99135.04;108445;1282;21999;-75
2021/12/10 03:25:13;;;;;;;66.60;50.10;;;;;;;-1.00;80.33;99137.64;108366;1282;21994;-76
2021/12/10 03:27:53;;;;;;;68.20;49.90;;;;;;;-1.04;80.15;99125.64;108408;1282;23038;-75
2021/12/10 03:30:30;;;;;;;61.30;48.70;;;;;;;-1.05;80.24;99122.28;108036;1288;21999;-74
2021/12/10 03:33:01;;;;;;;64.50;47.60;;;;;;;-1.04;80.19;99127.70;108132;1284;21980;-75
2021/12/10 03:35:45;;;;;;;68.90;50.70;;;;;;;-1.05;80.28;99123.88;108355;1283;21993;-76
2021/12/10 03:38:24;;;;;;;66.10;50.60;;;;;;;-1.09;80.24;99130.20;108450;1283;22063;-75
2021/12/10 03:41:17;;;;;;;64.20;49.20;;;;;;;-1.12;80.21;99136.90;108408;1283;22104;-75
2021/12/10 03:43:51;;;;;;;63.30;48.30;;;;;;;-1.16;80.24;99128.71;108406;1283;22382;-75
2021/12/10 03:46:30;;;;;;;65.70;49.20;;;;;;;-1.20;80.33;99125.74;108517;1281;22000;-75
2021/12/10 03:49:07;;;;;;;65.30;48.60;;;;;;;-1.19;80.33;99120.31;108709;1276;23046;-75
2021/12/10 03:51:38;;;;;;;70.40;50.60;;;;;;;-1.20;80.42;99119.16;108674;1277;21989;-76
2021/12/10 03:54:17;;;;;;;65.90;50.90;;;;;;;-1.22;80.38;99116.17;108783;1277;23135;-74
2021/12/10 03:56:52;;;;;;;67.30;49.00;;;;;;;-1.23;80.40;99122.90;108794;1277;23098;-74
2021/12/10 03:59:30;;;;;;;69.40;52.80;;;;;;;-1.25;80.48;99121.63;108773;1277;23750;-75
2021/12/10 04:02:09;;;;;;;71.30;52.50;;;;;;;-1.24;80.59;99121.07;108878;1276;23031;-75
2021/12/10 04:04:54;;;;;;;75.40;53.50;;;;;;;-1.25;80.55;99114.87;108791;1277;21972;-75
2021/12/10 04:07:42;;;;;;;71.40;52.20;;;;;;;-1.25;80.54;99115.23;108785;1277;23030;-75
2021/12/10 04:10:20;;;;;;;73.30;51.60;;;;;;;-1.24;80.65;99112.09;108624;1276;22128;-74
2021/12/10 04:12:55;;;;;;;71.30;52.80;;;;;;;-1.25;80.57;99102.11;108429;1281;23136;-74
2021/12/10 04:15:24;;;;;;;71.80;51.40;;;;;;;-1.25;80.62;99094.52;108453;1281;24295;-74
2021/12/10 04:18:06;;;;;;;65.40;48.50;;;;;;;-1.24;80.72;99098.05;108453;1281;24040;-75
2021/12/10 04:21:09;;;;;;;69.20;50.60;;;;;;;-1.22;80.66;99100.02;108527;1280;23804;-75
2021/12/10 04:23:48;;;;;;;65.30;49.90;;;;;;;-1.22;80.81;99099.65;108443;1281;22073;-75
2021/12/10 04:26:25;;;;;;;69.20;49.20;;;;;;;-1.23;80.73;99087.42;108633;1281;23593;-75
2021/12/10 04:29:11;;;;;;;68.50;49.30;;;;;;;-1.23;80.70;99080.36;108611;1281;21991;-74
2021/12/10 04:31:44;;;;;;;65.80;49.40;;;;;;;-1.20;80.89;99084.30;108792;1275;21980;-74
2021/12/10 04:34:24;;;;;;;64.10;49.60;;;;;;;-1.19;80.73;99081.95;108799;1275;23708;-75
2021/12/10 04:37:10;;;;;;;71.80;52.70;;;;;;;-1.18;80.73;99076.02;108818;1276;23798;-75
2021/12/10 04:39:52;;;;;;;67.70;50.00;;;;;;;-1.17;80.79;99074.58;108780;1276;22111;-75
2021/12/10 04:42:25;;;;;;;71.10;52.50;;;;;;;-1.17;80.83;99072.48;109024;1275;22025;-75
2021/12/10 04:45:00;;;;;;;72.00;51.70;;;;;;;-1.17;80.85;99067.61;108959;1277;21985;-75
2021/12/10 04:47:34;;;;;;;76.20;52.10;;;;;;;-1.17;80.78;99063.63;108789;1276;21982;-76
2021/12/10 04:50:14;;;;;;;73.20;54.50;;;;;;;-1.16;80.78;99058.09;108638;1277;23684;-75
2021/12/10 04:52:48;;;;;;;67.80;52.20;;;;;;;-1.16;80.83;99058.53;108863;1275;23046;-74
2021/12/10 04:55:23;;;;;;;71.50;53.80;;;;;;;-1.15;80.84;99062.41;108968;1275;22005;-74
2021/12/10 04:57:53;;;;;;;66.80;50.80;;;;;;;-1.16;80.72;99072.61;108991;1276;21985;-74
2021/12/10 05:00:44;;;;;;;74.00;54.10;;;;;;;-1.20;80.79;99070.98;108734;1276;24302;-75
2021/12/10 05:03:18;;;;;;;75.40;54.40;;;;;;;-1.22;80.78;99073.57;108836;1276;21988;-75
2021/12/10 05:05:59;;;;;;;74.70;54.10;;;;;;;-1.23;80.86;99070.89;108952;1272;23640;-74
2021/12/10 05:08:33;;;;;;;73.10;56.00;;;;;;;-1.25;80.82;99068.23;108849;1276;22743;-74
2021/12/10 05:11:14;;;;;;;73.00;55.80;;;;;;;-1.23;81.00;99075.74;108919;1275;23563;-76
2021/12/10 05:13:51;;;;;;;74.90;54.30;;;;;;;-1.22;81.06;99075.47;108744;1275;21987;-75
2021/12/10 05:16:27;;;;;;;66.80;52.40;;;;;;;-1.20;81.06;99071.67;108575;1280;23012;-75
2021/12/10 05:19:08;;;;;;;76.20;56.70;;;;;;;-1.15;81.13;99076.79;108551;1280;22078;-74
2021/12/10 05:21:46;;;;;;;76.40;55.40;;;;;;;-1.12;81.06;99079.63;108438;1280;22036;-74
2021/12/10 05:24:24;;;;;;;78.80;56.70;;;;;;;-1.11;81.01;99079.73;108592;1280;21984;-75
2021/12/10 05:27:13;;;;;;;81.10;59.80;;;;;;;-1.09;81.03;99078.23;108475;1280;23046;-75
2021/12/10 05:30:14;;;;;;;80.70;57.40;;;;;;;-1.09;81.03;99072.50;108277;1287;22125;-76
2021/12/10 05:33:00;;;;;;;77.30;57.30;;;;;;;-1.10;80.89;99066.02;108279;1286;23062;-75
2021/12/10 05:35:34;;;;;;;81.10;59.70;;;;;;;-1.12;80.96;99062.56;108497;1282;22261;-75
2021/12/10 05:38:24;;;;;;;80.70;61.70;;;;;;;-1.14;81.05;99057.38;108427;1281;22023;-75
2021/12/10 05:41:02;;;;;;;85.50;58.50;;;;;;;-1.13;81.02;99053.16;108433;1282;23080;-74
2021/12/10 05:43:45;;;;;;;85.90;56.80;;;;;;;-1.12;81.10;99047.33;108414;1282;21982;-75
2021/12/10 05:46:17;;;;;;;80.70;60.40;;;;;;;-1.10;81.08;99052.91;108386;1282;22004;-76
2021/12/10 05:48:51;;;;;;;78.60;59.40;;;;;;;-1.06;81.17;99063.30;108786;1276;24324;-75
2021/12/10 05:51:25;;;;;;;87.10;64.90;;;;;;;-1.04;81.04;99063.83;108919;1275;21989;-75
2021/12/10 05:54:08;;;;;;;85.70;62.90;;;;;;;-1.01;81.18;99069.08;108800;1276;22100;-76
2021/12/10 05:56:40;;;;;;;85.00;62.40;;;;;;;-0.99;81.21;99067.51;108881;1275;24314;-76
2021/12/10 05:59:18;;;;;;;88.20;63.70;;;;;;;-0.98;81.01;99066.88;108821;1275;21982;-76
2021/12/10 06:01:53;;;;;;;76.30;58.10;;;;;;;-0.98;80.93;99065.70;108882;1275;22004;-76
2021/12/10 06:04:34;;;;;;;79.00;59.50;;;;;;;-1.02;80.85;99068.63;108964;1275;22048;-76
2021/12/10 06:07:12;;;;;;;86.60;61.10;;;;;;;-1.05;80.87;99073.70;108895;1275;22312;-76
2021/12/10 06:09:47;;;;;;;84.90;59.40;;;;;;;-1.08;80.88;99072.90;108944;1275;23019;-76
2021/12/10 06:12:19;;;;;;;83.60;58.90;;;;;;;-1.08;80.97;99073.98;109087;1274;22109;-75
2021/12/10 06:14:58;;;;;;;82.50;59.80;;;;;;;-1.05;81.12;99076.29;108547;1280;22095;-76
2021/12/10 06:17:31;;;;;;;86.40;63.80;;;;;;;-1.03;81.14;99074.92;108383;1282;23058;-75
2021/12/10 06:20:11;;;;;;;88.90;65.10;;;;;;;-1.01;81.06;99072.89;108665;1280;23054;-75
2021/12/10 06:22:47;;;;;;;90.60;63.60;;;;;;;-0.97;81.16;99074.98;108558;1281;23086;-75
2021/12/10 06:25:16;;;;;;;83.40;60.10;;;;;;;-0.96;81.01;99073.68;108497;1281;23091;-74
2021/12/10 06:27:48;;;;;;;79.00;58.50;;;;;;;-0.98;80.96;99069.50;108663;1281;22267;-76
2021/12/10 06:30:30;;;;;;;88.60;61.60;;;;;;;-1.02;80.82;99068.30;108558;1281;23688;-75
2021/12/10 06:33:02;;;;;;;78.90;57.60;;;;;;;-1.05;80.85;99069.91;108750;1275;23737;-75
2021/12/10 06:35:35;;;;;;;79.60;60.30;;;;;;;-1.07;80.90;99071.98;108817;1277;23754;-75
2021/12/10 06:38:08;;;;;;;103.90;77.70;;;;;;;-1.11;80.82;99075.63;108990;1275;22036;-75
2021/12/10 06:40:52;;;;;;;;;;;;;;;;;;;;;
2021/12/10 06:43:26;;;;;;;137.60;105.00;;;;;;;-1.19;80.87;99067.30;108211;1288;21993;-76
2021/12/10 06:46:06;;;;;;;94.60;72.10;;;;;;;-1.22;80.96;99070.30;108186;1286;24136;-74
2021/12/10 06:48:36;;;;;;;119.30;91.10;;;;;;;-1.24;80.98;99065.73;108059;1287;22019;-77
2021/12/10 06:51:20;;;;;;;214.60;120.60;;;;;;;-1.23;81.13;99063.75;108198;1286;23627;-75
2021/12/10 06:53:59;;;;;;;124.40;73.50;;;;;;;-1.16;81.37;99064.95;108067;1287;23742;-74
2021/12/10 06:56:35;;;;;;;102.40;68.70;;;;;;;-1.14;81.21;99069.61;107828;1291;23517;-75
2021/12/10 06:59:08;;;;;;;150.00;89.40;;;;;;;-1.14;81.16;99067.58;108054;1288;22967;-75
2021/12/10 07:01:43;;;;;;;222.90;154.80;;;;;;;-1.13;81.07;99064.73;108408;1281;23050;-75
2021/12/10 07:04:16;;;;;;;209.50;145.60;;;;;;;-1.13;81.10;99065.57;108399;1284;22070;-75
2021/12/10 07:06:47;;;;;;;144.00;92.60;;;;;;;-1.13;81.08;99062.32;108679;1280;22014;-74
2021/12/10 07:09:25;;;;;;;112.60;75.90;;;;;;;-1.13;81.09;99057.64;108645;1281;21985;-75
2021/12/10 07:11:55;;;;;;;135.80;85.80;;;;;;;-1.10;81.22;99052.36;108508;1282;21993;-74
2021/12/10 07:14:26;;;;;;;108.00;73.80;;;;;;;-1.06;81.34;99053.61;108381;1282;22023;-74
2021/12/10 07:16:56;;;;;;;109.60;73.40;;;;;;;-1.05;81.21;99052.83;108435;1282;23744;-74
2021/12/10 07:19:27;;;;;;;114.90;76.00;;;;;;;-1.04;81.36;99054.80;108439;1282;22548;-75
2021/12/10 07:21:57;;;;;;;149.00;91.10;;;;;;;-1.01;81.27;99050.38;108815;1275;24368;-75
2021/12/10 07:24:26;;;;;;;122.90;83.90;;;;;;;-0.96;81.44;99053.30;108823;1275;21973;-76
2021/12/10 07:26:57;;;;;;;149.30;98.20;;;;;;;-0.92;81.28;99046.10;108906;1275;21990;-75
2021/12/10 07:29:29;;;;;;;139.10;95.80;;;;;;;-0.89;81.26;99046.35;108911;1275;24380;-76
2021/12/10 07:32:01;;;;;;;167.00;110.70;;;;;;;-0.85;81.35;99047.18;109033;1274;23127;-75
2021/12/10 07:34:31;;;;;;;152.50;99.50;;;;;;;-0.81;81.25;99045.33;109092;1274;23701;-75
2021/12/10 07:37:08;;;;;;;130.40;90.50;;;;;;;-0.81;81.14;99046.32;109111;1272;24314;-76
2021/12/10 07:39:38;;;;;;;138.20;95.30;;;;;;;-0.81;81.10;99046.18;109097;1274;23030;-75
2021/12/10 07:42:14;;;;;;;126.90;93.00;;;;;;;-0.80;81.13;99047.63;108960;1273;23573;-75
2021/12/10 07:44:44;;;;;;;132.40;96.20;;;;;;;-0.77;81.16;99048.09;109057;1273;22448;-76
2021/12/10 07:47:15;;;;;;;117.80;79.40;;;;;;;-0.74;81.13;99052.35;108887;1275;23576;-76
2021/12/10 07:49:45;;;;;;;122.90;88.00;;;;;;;-0.75;81.01;99053.62;108898;1273;22208;-74
2021/12/10 07:52:25;;;;;;;115.40;83.40;;;;;;;-0.75;81.06;99055.86;109092;1274;22447;-75
2021/12/10 07:54:57;;;;;;;112.50;80.30;;;;;;;-0.74;81.06;99055.59;109059;1274;21979;-76
2021/12/10 07:57:29;;;;;;;127.90;90.90;;;;;;;-0.72;81.11;99060.66;108985;1275;23733;-75
2021/12/10 07:59:58;;;;;;;146.30;97.70;;;;;;;-0.71;81.07;99065.24;108915;1274;22067;-76
2021/12/10 08:02:27;;;;;;;209.10;128.90;;;;;;;-0.71;81.07;99066.76;109048;1274;22011;-75
2021/12/10 08:04:57;;;;;;;124.00;83.20;;;;;;;-0.69;81.05;99071.33;108903;1274;23570;-75
2021/12/10 08:07:26;;;;;;;142.30;99.60;;;;;;;-0.67;81.11;99076.31;108928;1275;22109;-75
2021/12/10 08:09:55;;;;;;;238.50;155.80;;;;;;;-0.64;81.18;99080.73;109067;1273;21986;-74
2021/12/10 08:12:24;;;;;;;240.10;144.20;;;;;;;-0.62;81.13;99077.08;109033;1274;21972;-75
2021/12/10 08:14:55;;;;;;;161.00;104.00;;;;;;;-0.64;80.92;99076.08;108899;1274;23587;-75
2021/12/10 08:17:24;;;;;;;136.80;95.40;;;;;;;-0.62;81.15;99078.27;108887;1276;21973;-75
2021/12/10 08:19:54;;;;;;;152.10;101.60;;;;;;;-0.53;81.38;99079.83;108778;1274;22018;-75
2021/12/10 08:22:27;;;;;;;154.20;100.00;;;;;;;-0.48;81.20;99076.46;108737;1274;22050;-76
2021/12/10 08:24:56;;;;;;;152.20;96.00;;;;;;;-0.43;81.25;99071.23;108864;1275;22548;-75
2021/12/10 08:27:25;;;;;;;135.80;90.20;;;;;;;-0.39;81.29;99076.23;108885;1275;21984;-74
2021/12/10 08:29:58;;;;;;;132.30;94.50;;;;;;;-0.35;81.17;99082.98;108774;1275;23589;-74
2021/12/10 08:32:27;;;;;;;147.10;105.00;;;;;;;-0.33;80.99;99083.21;109058;1275;23148;-75
2021/12/10 08:34:57;;;;;;;145.10;97.00;;;;;;;-0.33;81.10;99083.30;108974;1275;23692;-75
2021/12/10 08:37:27;;;;;;;157.60;105.00;;;;;;;-0.28;81.08;99081.13;109051;1275;21985;-75
2021/12/10 08:39:57;;;;;;;159.70;106.40;;;;;;;-0.23;81.06;99082.47;108863;1274;21987;-76
2021/12/10 08:42:29;;;;;;;150.90;105.10;;;;;;;-0.18;81.12;99080.97;108803;1274;23093;-75
2021/12/10 08:45:02;;;;;;;140.00;101.10;;;;;;;-0.11;81.22;99076.11;108595;1280;23608;-75
2021/12/10 08:47:34;;;;;;;134.20;93.00;;;;;;;-0.06;81.08;99077.08;108639;1280;22336;-75
2021/12/10 08:50:09;;;;;;;179.80;115.30;;;;;;;-0.02;81.02;99077.90;108467;1282;23291;-74
2021/12/10 08:52:38;;;;;;;174.70;110.00;;;;;;;0.05;81.12;99081.83;108419;1282;23589;-74
2021/12/10 08:55:10;;;;;;;128.40;88.00;;;;;;;0.10;81.00;99076.55;108450;1282;23580;-73
2021/12/10 08:57:40;;;;;;;131.00;91.70;;;;;;;0.13;80.91;99075.23;108440;1282;23760;-75
2021/12/10 09:00:16;;;;;;;210.30;131.20;;;;;;;0.17;80.90;99067.65;108397;1283;22057;-75
2021/12/10 09:02:54;;;;;;;142.80;95.20;;;;;;;0.25;81.06;99059.17;108398;1275;21971;-75
2021/12/10 09:05:28;;;;;;;126.10;86.30;;;;;;;0.33;80.96;99057.24;108996;1275;23597;-74
2021/12/10 09:07:58;;;;;;;118.80;78.50;;;;;;;0.36;80.81;99052.23;108801;1277;23767;-75
2021/12/10 09:10:35;;;;;;;132.50;86.70;;;;;;;0.33;80.34;99051.50;108742;1275;21986;-74
2021/12/10 09:13:13;;;;;;;121.60;83.70;;;;;;;0.33;80.45;99038.75;108798;1275;23053;-74
2021/12/10 09:15:50;;;;;;;123.80;84.00;;;;;;;0.38;80.47;99042.08;108927;1274;21973;-74
2021/12/10 09:18:21;;;;;;;128.50;87.00;;;;;;;0.43;80.40;99042.98;108743;1274;268800;-75
2021/12/10 09:21:06;;;;;;;121.70;86.50;;;;;;;0.51;80.59;99047.88;109018;1274;21979;-74
2021/12/10 09:23:39;;;;;;;193.10;131.60;;;;;;;0.61;80.62;99048.52;108808;1274;23047;-74
2021/12/10 09:26:18;;;;;;;120.60;87.00;;;;;;;0.62;79.97;99053.60;108901;1274;21978;-75
2021/12/10 09:28:48;;;;;;;142.50;93.00;;;;;;;0.56;79.53;99053.27;108893;1273;21998;-75
2021/12/10 09:31:17;;;;;;;144.30;92.00;;;;;;;0.49;79.29;99051.66;109103;1274;21983;-73
2021/12/10 09:33:49;;;;;;;155.70;97.20;;;;;;;0.49;79.51;99056.38;108906;1274;23564;-74
2021/12/10 09:36:19;;;;;;;148.40;94.00;;;;;;;0.50;79.60;99058.91;109001;1274;23050;-74
2021/12/10 09:38:48;;;;;;;125.60;80.70;;;;;;;0.48;79.30;99056.58;108837;1274;21994;-74
2021/12/10 09:41:19;;;;;;;130.30;87.70;;;;;;;0.41;79.09;99061.02;108864;1274;21970;-74
2021/12/10 09:43:49;;;;;;;131.70;86.00;;;;;;;0.38;79.22;99070.80;109039;1274;22736;-74
2021/12/10 09:46:26;;;;;;;114.80;78.20;;;;;;;0.34;79.00;99064.62;108926;1274;23774;-74
2021/12/10 09:48:56;;;;;;;121.70;82.80;;;;;;;0.30;79.03;99064.12;108821;1277;22452;-73
2021/12/10 09:51:33;;;;;;;134.90;88.20;;;;;;;0.26;79.12;99059.91;108895;1275;21991;-73
2021/12/10 09:54:11;;;;;;;130.60;84.90;;;;;;;0.28;79.28;99064.08;108971;1274;23577;-74
2021/12/10 09:56:51;;;;;;;128.00;80.40;;;;;;;0.24;79.07;99066.84;108848;1274;21982;-74
2021/12/10 09:59:22;;;;;;;133.80;85.50;;;;;;;0.23;79.31;99066.75;109034;1274;21984;-74
2021/12/10 10:01:54;;;;;;;137.30;85.80;;;;;;;0.24;79.40;99065.97;108910;1274;21981;-74
2021/12/10 10:04:27;;;;;;;131.30;84.90;;;;;;;0.26;79.41;99061.13;108806;1274;23143;-74
2021/12/10 10:07:10;;;;;;;133.00;85.80;;;;;;;0.28;79.43;99057.64;108986;1274;22398;-74
2021/12/10 10:09:55;;;;;;;124.80;84.20;;;;;;;0.33;79.48;99056.86;108876;1274;23034;-74
2021/12/10 10:12:40;;;;;;;115.90;79.20;;;;;;;0.35;79.51;99055.79;109030;1274;21995;-74
2021/12/10 10:15:17;;;;;;;121.00;81.30;;;;;;;0.37;79.35;99055.08;108889;1273;21988;-73
2021/12/10 10:17:58;;;;;;;116.60;79.50;;;;;;;0.36;79.34;99055.55;108870;1274;23596;-73
2021/12/10 10:20:32;;;;;;;125.10;86.80;;;;;;;0.33;79.18;99061.17;108849;1275;22170;-74
2021/12/10 10:23:03;;;;;;;116.50;79.10;;;;;;;0.35;79.35;99061.23;109068;1274;23081;-73
2021/12/10 10:25:42;;;;;;;113.70;77.30;;;;;;;0.36;79.30;99066.17;108937;1275;23027;-74
2021/12/10 10:28:13;;;;;;;104.60;75.80;;;;;;;0.39;79.48;99067.11;109172;1275;21982;-73
2021/12/10 10:31:09;;;;;;;114.10;77.70;;;;;;;0.43;79.42;99065.02;108828;1275;23989;-74
2021/12/10 10:33:41;;;;;;;106.30;74.00;;;;;;;0.46;79.49;99060.44;109044;1275;22610;-74
2021/12/10 10:36:21;;;;;;;112.00;78.50;;;;;;;0.49;79.47;99060.16;108781;1275;23673;-73
2021/12/10 10:39:00;;;;;;;107.40;76.80;;;;;;;0.54;79.59;99054.98;108817;1275;21985;-74
2021/12/10 10:41:33;;;;;;;119.30;81.70;;;;;;;0.60;79.55;99053.63;108647;1280;22012;-74
2021/12/10 10:44:05;;;;;;;;;;;;;;;0.67;79.68;99055.06;108663;1280;22016;-74
2021/12/10 10:46:36;;;;;;;121.20;81.30;;;;;;;0.71;79.78;99055.45;108685;1280;22592;-74
2021/12/10 10:49:06;;;;;;;111.20;79.30;;;;;;;0.78;79.73;99053.25;108368;1286;21999;-73
2021/12/10 10:51:41;;;;;;;112.60;76.80;;;;;;;0.85;79.48;99048.33;108007;1290;23041;-74
2021/12/10 10:54:11;;;;;;;120.60;81.20;;;;;;;0.84;79.12;99040.74;107701;1295;22016;-74
2021/12/10 10:56:46;;;;;;;113.70;78.50;;;;;;;0.81;78.94;99037.35;107586;1297;22037;-74
2021/12/10 10:59:25;;;;;;;120.00;81.80;;;;;;;0.79;78.77;99033.39;107553;1291;22021;-74
2021/12/10 11:02:07;;;;;;;117.90;82.40;;;;;;;0.76;78.64;99034.38;107770;1291;22022;-75
2021/12/10 11:04:49;;;;;;;120.40;79.30;;;;;;;0.75;78.65;99032.95;107938;1292;23611;-74
2021/12/10 11:07:25;;;;;;;124.10;86.50;;;;;;;0.73;78.70;99037.30;107860;1289;22046;-74
2021/12/10 11:10:04;;;;;;;124.00;84.20;;;;;;;0.75;78.74;99037.41;108238;1281;22034;-74
2021/12/10 11:12:41;;;;;;;133.60;86.90;;;;;;;0.79;78.90;99033.89;108630;1275;22000;-73
2021/12/10 11:15:25;;;;;;;133.50;87.80;;;;;;;0.85;78.84;99033.52;109060;1275;21973;-75
2021/12/10 11:17:56;;;;;;;131.60;85.90;;;;;;;0.89;78.86;99028.32;108672;1281;22004;-74
2021/12/10 11:20:42;;;;;;;128.20;87.30;;;;;;;0.90;78.62;99020.77;108667;1281;23717;-75
2021/12/10 11:23:13;;;;;;;137.90;92.10;;;;;;;0.90;78.51;99020.27;108752;1281;22325;-76
2021/12/10 11:25:50;;;;;;;133.50;88.80;;;;;;;0.96;78.76;99018.73;108778;1279;23791;-74
2021/12/10 11:28:30;;;;;;;133.70;88.90;;;;;;;1.02;78.76;99016.09;108735;1279;23737;-74
2021/12/10 11:31:16;;;;;;;130.00;89.70;;;;;;;1.08;78.83;99013.45;108664;1278;22447;-73
2021/12/10 11:33:52;;;;;;;147.40;95.70;;;;;;;1.17;78.92;99014.19;108769;1280;22005;-75
2021/12/10 11:36:26;;;;;;;144.50;95.30;;;;;;;1.24;78.70;99007.45;108658;1275;22941;-74
2021/12/10 11:39:01;;;;;;;148.70;101.40;;;;;;;1.32;78.62;99002.58;108941;1275;23752;-74
2021/12/10 11:41:31;;;;;;;134.80;92.20;;;;;;;1.35;78.31;99004.58;108817;1275;23592;-74
2021/12/10 11:44:54;;;;;;;162.20;106.50;;;;;;;1.36;78.23;98997.00;108343;1283;23519;-74
2021/12/10 11:47:52;;;;;;;146.20;98.00;;;;;;;1.39;78.02;99004.36;108213;1285;23620;-74
2021/12/10 11:50:26;;;;;;;143.30;97.10;;;;;;;1.41;77.94;98999.49;108316;1286;22782;-74
2021/12/10 11:53:12;;;;;;;130.10;87.20;;;;;;;1.41;77.70;99000.01;108314;1288;23044;-75
2021/12/10 11:56:06;;;;;;;128.20;87.70;;;;;;;1.43;77.74;98998.83;108204;1286;22005;-75
2021/12/10 11:58:35;;;;;;;147.60;95.80;;;;;;;1.41;77.51;99004.63;108178;1286;22008;-74
2021/12/10 12:01:13;;;;;;;133.60;88.70;;;;;;;1.37;77.23;99004.67;108212;1288;21994;-74
2021/12/10 12:03:42;;;;;;;125.90;82.20;;;;;;;1.28;77.04;99004.81;108587;1282;21988;-74
2021/12/10 12:06:18;;;;;;;133.10;84.00;;;;;;;1.17;76.80;99005.53;108578;1282;21986;-74